Time;durP1;ratioP1;P1;durP2;ratioP2;P2;SDS_P1;SDS_P2;PMS_P1;PMS_P2;Temp;Humidity;BMP_temperature;BMP_pressure;BME280_temperature;BME280_humidity;BME280_pressure;Samples;Min_cycle;Max_cycle;Signal;HPM_P1;HPM_P2
2022/11/08 00:01:36;;;;;;;14.67;8.47;;;;;;;9.43;nan;-24080.50;5011818;28;20167;-73
2022/11/08 00:04:05;;;;;;;17.10;8.80;;;;;;;9.49;nan;-24082.19;5012014;28;20242;-73
2022/11/08 00:14:45;;;;;;;18.60;8.43;;;;;;;9.15;nan;-24072.56;5012430;28;20186;-73
2022/11/08 00:17:13;;;;;;;20.65;9.85;;;;;;;9.46;nan;-24081.19;5011779;28;20172;-74
2022/11/08 00:19:38;;;;;;;14.83;8.10;;;;;;;9.42;nan;-24080.22;5011617;28;20200;-73
2022/11/08 00:22:03;;;;;;;19.10;8.20;;;;;;;9.38;nan;-24078.94;5011755;28;20253;-73
2022/11/08 00:24:29;;;;;;;18.35;9.60;;;;;;;9.34;nan;-24077.94;5011932;28;20180;-75
2022/11/08 00:26:55;;;;;;;20.70;8.43;;;;;;;9.35;nan;-24078.22;5010208;28;20649;-72
2022/11/08 00:29:20;;;;;;;16.10;8.27;;;;;;;9.70;nan;-24088.13;5011732;28;20186;-73
2022/11/08 00:31:45;;;;;;;19.93;9.27;;;;;;;9.10;nan;-24071.16;5011590;28;20190;-73
2022/11/08 00:34:11;;;;;;;16.93;8.70;;;;;;;9.40;nan;-24079.63;5011317;28;20603;-73
2022/11/08 00:36:36;;;;;;;16.17;8.43;;;;;;;9.47;nan;-24081.63;5013080;28;20175;-73
2022/11/08 00:39:02;;;;;;;21.53;9.70;;;;;;;5.46;nan;-23969.06;5015205;28;20265;-73
2022/11/08 00:41:27;;;;;;;27.30;11.43;;;;;;;9.88;nan;-24092.91;5015373;28;20254;-75
2022/11/08 00:43:52;;;;;;;23.67;9.02;;;;;;;9.84;nan;-24091.78;5014037;28;20183;-73
2022/11/08 00:46:18;;;;;;;22.48;9.18;;;;;;;9.79;nan;-24090.38;5014286;28;20182;-73
2022/11/08 00:48:43;;;;;;;31.42;9.43;;;;;;;9.55;nan;-24083.88;5015154;28;20176;-73
2022/11/08 00:51:11;;;;;;;19.10;9.07;;;;;;;9.79;nan;-24090.38;5015457;28;20386;-74
2022/11/08 00:53:37;;;;;;;16.38;8.43;;;;;;;9.94;nan;-24094.75;5015253;28;20168;-74
2022/11/08 00:56:09;;;;;;;19.80;9.10;;;;;;;9.31;nan;-24077.25;5015193;28;20172;-74
2022/11/08 00:58:34;;;;;;;18.55;9.40;;;;;;;9.56;nan;-24084.16;5015016;28;20600;-74
2022/11/08 01:01:00;;;;;;;16.55;8.35;;;;;;;9.84;nan;-24091.78;5013371;28;20207;-72
2022/11/08 01:03:25;;;;;;;22.52;9.10;;;;;;;9.88;nan;-24092.91;5014984;28;20230;-72
2022/11/08 01:05:53;;;;;;;17.90;8.27;;;;;;;9.94;nan;-24094.63;5015001;28;20178;-73
2022/11/08 01:08:21;;;;;;;21.23;9.82;;;;;;;10.06;nan;-24098.16;5014812;28;20168;-73
2022/11/08 01:10:49;;;;;;;22.20;9.40;;;;;;;10.06;nan;-24098.00;5014975;28;20252;-74
2022/11/08 01:13:16;;;;;;;14.38;8.25;;;;;;;9.73;nan;-24088.97;5014875;28;20180;-74
2022/11/08 01:15:43;;;;;;;15.98;8.77;;;;;;;10.06;nan;-24098.16;5014953;28;20663;-73
2022/11/08 01:18:10;;;;;;;17.75;9.65;;;;;;;9.77;nan;-24089.94;5014831;28;20199;-74
2022/11/08 01:20:43;;;;;;;20.88;10.93;;;;;;;9.74;nan;-24089.25;5014753;28;20261;-73
2022/11/08 01:23:09;;;;;;;24.45;9.82;;;;;;;10.23;nan;-24102.66;5013351;28;20568;-73
2022/11/08 01:25:40;;;;;;;22.48;11.55;;;;;;;9.94;nan;-24094.63;5014446;28;20228;-73
2022/11/08 01:28:06;;;;;;;22.25;10.38;;;;;;;10.33;nan;-24105.63;5014832;28;20187;-72
2022/11/08 01:30:36;;;;;;;21.55;11.30;;;;;;;10.37;nan;-24106.63;5013194;28;20176;-74
2022/11/08 01:33:01;;;;;;;20.83;10.23;;;;;;;10.27;nan;-24103.94;5014113;28;20208;-73
2022/11/08 01:35:27;;;;;;;16.98;9.30;;;;;;;9.75;nan;-24089.53;5014140;28;20254;-73
2022/11/08 01:37:52;;;;;;;16.90;9.05;;;;;;;10.02;nan;-24096.88;5013841;28;20541;-72
2022/11/08 01:40:18;;;;;;;23.13;11.70;;;;;;;9.86;nan;-24092.34;5013920;28;20311;-73
2022/11/08 01:42:43;;;;;;;24.30;10.10;;;;;;;10.07;nan;-24098.28;5012567;28;20310;-72
2022/11/08 01:45:10;;;;;;;17.65;9.65;;;;;;;10.31;nan;-24104.94;5013861;28;20200;-73
2022/11/08 01:47:36;;;;;;;22.27;9.63;;;;;;;10.10;nan;-24099.28;5012773;28;20701;-73
2022/11/08 01:50:04;;;;;;;21.50;10.80;;;;;;;10.27;nan;-24103.94;5013397;28;20165;-73
2022/11/08 01:52:38;;;;;;;25.15;10.68;;;;;;;10.41;nan;-24107.88;5013940;28;20779;-73
2022/11/08 01:55:15;;;;;;;23.55;10.48;;;;;;;10.40;nan;-24107.63;5013778;28;20179;-73
2022/11/08 01:58:19;;;;;;;21.52;10.05;;;;;;;10.48;nan;-24109.72;5013388;28;20254;-73
2022/11/08 02:00:44;;;;;;;23.65;10.38;;;;;;;9.93;nan;-24094.47;5011047;28;20663;-73
2022/11/08 02:03:13;;;;;;;19.20;10.57;;;;;;;9.71;nan;-24088.25;5006449;28;20219;-73
2022/11/08 02:05:39;;;;;;;15.35;8.52;;;;;;;9.80;nan;-24090.66;5013380;28;20603;-72
2022/11/08 02:08:18;;;;;;;19.95;10.27;;;;;;;10.21;nan;-24102.25;5013944;28;20168;-73
2022/11/08 02:10:48;;;;;;;22.88;9.73;;;;;;;10.31;nan;-24105.06;5013645;28;20168;-72
2022/11/08 02:13:17;;;;;;;17.83;9.80;;;;;;;10.00;nan;-24096.44;5013267;28;20176;-73
2022/11/08 02:15:43;;;;;;;23.02;9.85;;;;;;;10.30;nan;-24104.78;5013128;28;20655;-73
2022/11/08 02:18:09;;;;;;;25.30;11.65;;;;;;;10.42;nan;-24108.03;5013785;28;20180;-73
2022/11/08 02:20:34;;;;;;;20.98;11.75;;;;;;;10.48;nan;-24109.88;5013766;28;20227;-72
2022/11/08 02:23:03;;;;;;;18.15;9.63;;;;;;;10.46;nan;-24109.31;5013594;28;20211;-73
2022/11/08 02:25:29;;;;;;;20.13;9.65;;;;;;;10.61;nan;-24113.53;5013450;28;20180;-73
2022/11/08 02:27:54;;;;;;;20.05;11.30;;;;;;;10.44;nan;-24108.75;5013875;28;20242;-73
2022/11/08 02:30:20;;;;;;;21.30;11.15;;;;;;;10.18;nan;-24101.53;5013118;28;20180;-73
2022/11/08 02:32:46;;;;;;;22.02;10.95;;;;;;;10.09;nan;-24099.00;5012233;28;20199;-73
2022/11/08 02:35:16;;;;;;;25.05;11.18;;;;;;;10.13;nan;-24099.97;5013358;28;20179;-73
2022/11/08 02:37:42;;;;;;;19.73;9.52;;;;;;;10.26;nan;-24103.66;5013391;28;20176;-73
2022/11/08 02:40:08;;;;;;;24.38;10.18;;;;;;;9.97;nan;-24095.47;5012976;28;20350;-73
2022/11/08 02:42:33;;;;;;;16.88;9.77;;;;;;;10.02;nan;-24096.88;5012768;28;20179;-73
2022/11/08 02:44:58;;;;;;;28.95;10.07;;;;;;;10.34;nan;-24105.91;5012790;28;20180;-73
2022/11/08 02:47:24;;;;;;;20.23;10.00;;;;;;;10.15;nan;-24100.69;5012711;28;20279;-73
2022/11/08 02:49:49;;;;;;;21.52;10.52;;;;;;;10.43;nan;-24108.47;5013052;28;20164;-73
2022/11/08 02:52:15;;;;;;;21.45;9.20;;;;;;;10.16;nan;-24100.84;5013197;28;20186;-73
2022/11/08 02:54:40;;;;;;;23.55;10.30;;;;;;;10.11;nan;-24099.56;5013052;28;20560;-73
2022/11/08 02:57:06;;;;;;;19.17;9.32;;;;;;;10.32;nan;-24105.34;5011585;28;20180;-72
2022/11/08 02:59:31;;;;;;;23.45;9.57;;;;;;;10.33;nan;-24105.63;5012250;28;20692;-73
2022/11/08 03:01:57;;;;;;;14.93;9.35;;;;;;;10.37;nan;-24106.63;5012417;28;20176;-73
2022/11/08 03:04:22;;;;;;;22.38;10.73;;;;;;;10.45;nan;-24108.88;5012747;28;20223;-72
2022/11/08 03:06:47;;;;;;;18.52;9.75;;;;;;;10.16;nan;-24100.84;5012563;28;20172;-73
2022/11/08 03:09:13;;;;;;;18.88;10.30;;;;;;;10.37;nan;-24106.63;5012436;28;20528;-74
2022/11/08 03:11:38;;;;;;;19.85;10.35;;;;;;;10.30;nan;-24104.66;5013437;28;20175;-73
2022/11/08 03:14:04;;;;;;;23.42;10.65;;;;;;;10.55;nan;-24111.69;5012519;28;20173;-73
2022/11/08 03:16:29;;;;;;;21.25;10.63;;;;;;;10.32;nan;-24105.34;5012593;28;20222;-73
2022/11/08 03:18:55;;;;;;;21.15;10.07;;;;;;;10.32;nan;-24105.22;5012604;28;20183;-74
2022/11/08 03:21:20;;;;;;;20.75;10.27;;;;;;;9.95;nan;-24094.91;5012499;28;20164;-73
2022/11/08 03:23:45;;;;;;;24.75;10.23;;;;;;;10.00;nan;-24096.31;5012169;28;20215;-73
2022/11/08 03:26:11;;;;;;;29.73;10.20;;;;;;;10.29;nan;-24104.38;5012106;28;20242;-73
2022/11/08 03:28:36;;;;;;;20.13;9.85;;;;;;;10.22;nan;-24102.53;5012731;28;20615;-74
2022/11/08 03:31:02;;;;;;;24.35;10.20;;;;;;;10.29;nan;-24104.50;5012258;28;20651;-73
2022/11/08 03:33:27;;;;;;;19.80;10.68;;;;;;;10.28;nan;-24104.06;5012398;28;20682;-73
2022/11/08 03:35:53;;;;;;;23.98;10.70;;;;;;;10.37;nan;-24106.75;5012310;28;20180;-73
2022/11/08 03:38:18;;;;;;;21.45;10.60;;;;;;;10.11;nan;-24099.56;5012076;28;20268;-73
2022/11/08 03:40:45;;;;;;;22.17;11.35;;;;;;;9.80;nan;-24090.66;5012183;28;20220;-72
2022/11/08 03:43:10;;;;;;;17.42;9.70;;;;;;;10.40;nan;-24107.63;5011914;28;20200;-74
2022/11/08 03:45:35;;;;;;;22.85;10.32;;;;;;;10.03;nan;-24097.16;5012269;28;20255;-73
2022/11/08 03:48:01;;;;;;;21.15;10.65;;;;;;;10.18;nan;-24101.41;5012169;28;20172;-73
2022/11/08 03:50:26;;;;;;;18.00;8.98;;;;;;;10.17;nan;-24101.25;5012362;28;20178;-74
2022/11/08 03:52:54;;;;;;;18.65;10.13;;;;;;;9.89;nan;-24093.34;5011964;28;20172;-73
2022/11/08 03:55:21;;;;;;;21.67;10.77;;;;;;;9.96;nan;-24095.19;5010752;28;20267;-73
2022/11/08 03:57:48;;;;;;;22.58;10.40;;;;;;;10.19;nan;-24101.69;5011840;28;20194;-72
2022/11/08 04:00:16;;;;;;;21.63;9.95;;;;;;;9.92;nan;-24094.06;5012128;28;20232;-73
2022/11/08 04:02:41;;;;;;;22.25;11.63;;;;;;;10.10;nan;-24099.13;5011980;28;20176;-73
2022/11/08 04:05:09;;;;;;;19.52;10.50;;;;;;;10.18;nan;-24101.53;5012016;28;20172;-73
2022/11/08 04:07:35;;;;;;;23.85;10.63;;;;;;;9.94;nan;-24094.75;5010453;28;20242;-73
2022/11/08 04:10:02;;;;;;;19.58;9.98;;;;;;;9.96;nan;-24095.31;5011682;28;20176;-73
2022/11/08 04:15:14;;;;;;;23.85;11.55;;;;;;;10.21;nan;-24102.09;5015809;28;20218;-73
2022/11/08 04:23:14;;;;;;;23.67;10.82;;;;;;;10.35;nan;-24106.19;5016565;28;20334;-73
2022/11/08 04:25:39;;;;;;;20.35;9.95;;;;;;;10.19;nan;-24101.81;5019793;28;20233;-75
2022/11/08 04:28:05;;;;;;;23.00;10.88;;;;;;;10.47;nan;-24109.59;5019717;28;20816;-73
2022/11/08 04:30:30;;;;;;;27.42;11.15;;;;;;;10.38;nan;-24107.03;5018972;28;20250;-73
2022/11/08 04:33:00;;;;;;;20.52;10.75;;;;;;;10.14;nan;-24100.41;5027347;28;20230;-73
2022/11/08 04:35:25;;;;;;;21.52;11.43;;;;;;;10.21;nan;-24102.25;5020598;28;20191;-74
2022/11/08 04:37:51;;;;;;;20.83;10.55;;;;;;;10.10;nan;-24099.28;5019422;28;20175;-73
2022/11/08 04:40:16;;;;;;;22.60;10.10;;;;;;;9.75;nan;-24089.38;5020623;28;20210;-74
2022/11/08 04:42:45;;;;;;;19.80;10.15;;;;;;;9.87;nan;-24092.63;5020077;28;20199;-73
2022/11/08 04:45:10;;;;;;;24.23;11.23;;;;;;;10.22;nan;-24102.38;5019972;28;20230;-74
2022/11/08 04:47:35;;;;;;;18.40;9.93;;;;;;;9.86;nan;-24092.50;5035001;28;20210;-73
2022/11/08 04:50:01;;;;;;;23.45;10.75;;;;;;;9.87;nan;-24092.63;5019190;28;20635;-73
2022/11/08 04:52:27;;;;;;;18.95;10.38;;;;;;;10.18;nan;-24101.53;5020585;28;20191;-73
2022/11/08 04:54:53;;;;;;;25.30;11.20;;;;;;;10.22;nan;-24102.38;5019072;28;20172;-73
2022/11/08 04:57:18;;;;;;;22.40;9.55;;;;;;;10.23;nan;-24102.66;5019586;28;20239;-74
2022/11/08 04:59:43;;;;;;;19.90;10.18;;;;;;;10.33;nan;-24105.50;5019985;28;20580;-73
2022/11/08 05:02:09;;;;;;;24.83;11.20;;;;;;;10.05;nan;-24097.88;5017322;28;20176;-73
2022/11/08 05:04:34;;;;;;;20.77;10.88;;;;;;;9.93;nan;-24094.34;5019304;28;20656;-75
2022/11/08 05:07:00;;;;;;;24.90;9.95;;;;;;;10.31;nan;-24105.06;5019484;28;20289;-74
2022/11/08 05:09:25;;;;;;;22.05;10.85;;;;;;;10.31;nan;-24105.06;5018909;28;20183;-75
2022/11/08 05:11:50;;;;;;;19.10;9.68;;;;;;;10.01;nan;-24096.59;5020017;28;20245;-76
2022/11/08 05:14:16;;;;;;;25.40;11.60;;;;;;;10.26;nan;-24103.66;5020921;28;20196;-73
2022/11/08 05:16:41;;;;;;;23.38;10.52;;;;;;;10.17;nan;-24101.25;5022565;28;20184;-73
2022/11/08 05:19:07;;;;;;;22.88;10.48;;;;;;;10.09;nan;-24098.84;5027770;28;20183;-73
2022/11/08 05:24:17;;;;;;;24.58;10.93;;;;;;;10.26;nan;-24103.53;5013820;28;20658;-74
2022/11/08 05:26:45;;;;;;;22.38;10.45;;;;;;;10.28;nan;-24104.22;5013617;28;20245;-75
2022/11/08 05:29:12;;;;;;;21.45;10.40;;;;;;;10.14;nan;-24100.41;5013926;28;20172;-74
2022/11/08 05:31:37;;;;;;;23.58;11.25;;;;;;;10.37;nan;-24106.75;5013346;28;20250;-74
2022/11/08 05:34:03;;;;;;;28.65;11.02;;;;;;;10.41;nan;-24107.75;5013684;28;20172;-73
2022/11/08 05:36:29;;;;;;;21.90;11.20;;;;;;;10.24;nan;-24103.09;5014110;28;20168;-75
2022/11/08 05:38:54;;;;;;;16.90;9.65;;;;;;;10.41;nan;-24107.88;5013784;28;20194;-74
2022/11/08 05:41:22;;;;;;;24.13;11.32;;;;;;;10.43;nan;-24108.47;5014018;28;20180;-74
2022/11/08 05:43:50;;;;;;;20.00;9.95;;;;;;;10.42;nan;-24108.16;5014340;28;20267;-74
2022/11/08 05:46:17;;;;;;;28.40;11.23;;;;;;;10.43;nan;-24108.47;5013774;28;20644;-73
2022/11/08 05:48:44;;;;;;;23.48;10.57;;;;;;;10.51;nan;-24110.72;5013707;28;20171;-75
2022/11/08 05:51:10;;;;;;;26.80;10.88;;;;;;;10.35;nan;-24106.19;5013929;28;20617;-74
2022/11/08 05:53:36;;;;;;;26.77;10.55;;;;;;;10.41;nan;-24107.88;5013871;28;20188;-74
2022/11/08 05:56:03;;;;;;;20.73;10.70;;;;;;;10.61;nan;-24113.53;5014030;28;20208;-72
2022/11/08 05:58:30;;;;;;;22.45;11.23;;;;;;;10.38;nan;-24107.03;5014439;28;20233;-74
2022/11/08 06:01:04;;;;;;;25.05;11.95;;;;;;;10.58;nan;-24112.69;5033705;28;20697;-76
2022/11/08 06:03:30;;;;;;;21.67;10.30;;;;;;;10.52;nan;-24110.84;5034042;28;20179;-74
2022/11/08 06:06:07;;;;;;;28.88;10.05;;;;;;;10.70;nan;-24115.78;5033620;28;20676;-74
2022/11/08 06:08:33;;;;;;;23.00;11.65;;;;;;;10.63;nan;-24113.97;5033674;28;20195;-73
2022/11/08 06:11:07;;;;;;;34.55;14.20;;;;;;;10.60;nan;-24113.13;5033260;28;20221;-75
2022/11/08 06:13:33;;;;;;;24.05;11.20;;;;;;;10.79;nan;-24118.34;5033044;28;20160;-76
2022/11/08 06:16:01;;;;;;;25.23;10.98;;;;;;;10.84;nan;-24119.75;5025177;28;20183;-74
2022/11/08 06:18:27;;;;;;;24.50;12.30;;;;;;;10.89;nan;-24121.16;5013212;28;20183;-75
2022/11/08 06:20:53;;;;;;;22.02;11.65;;;;;;;10.65;nan;-24114.53;5026173;28;20218;-73
2022/11/08 06:23:18;;;;;;;22.95;10.27;;;;;;;10.94;nan;-24122.69;5033116;28;20156;-74
2022/11/08 06:25:46;;;;;;;27.63;11.65;;;;;;;11.14;nan;-24128.06;5018030;28;20248;-76
2022/11/08 06:28:12;;;;;;;31.27;12.50;;;;;;;11.17;nan;-24129.03;5012840;28;20706;-73
2022/11/08 06:30:37;;;;;;;22.67;12.45;;;;;;;11.26;nan;-24131.59;5012693;28;20180;-74
2022/11/08 06:33:03;;;;;;;30.77;12.18;;;;;;;7.63;nan;-24030.09;5012884;28;20183;-72
2022/11/08 06:35:28;;;;;;;30.92;13.50;;;;;;;11.31;nan;-24133.00;5009348;28;20654;-72
2022/11/08 06:37:53;;;;;;;29.17;12.77;;;;;;;11.46;nan;-24137.09;5012801;28;20266;-74
2022/11/08 06:40:19;;;;;;;38.65;13.10;;;;;;;11.51;nan;-24138.63;5012798;28;20663;-75
2022/11/08 06:42:44;;;;;;;29.10;12.88;;;;;;;11.46;nan;-24137.22;5013639;28;20259;-74
2022/11/08 06:45:09;;;;;;;22.15;9.73;;;;;;;11.44;nan;-24136.66;5011505;28;20172;-76
2022/11/08 06:47:35;;;;;;;24.85;11.30;;;;;;;11.47;nan;-24137.34;5012984;28;20215;-72
2022/11/08 06:50:00;;;;;;;18.92;10.32;;;;;;;11.24;nan;-24131.03;5012942;28;20204;-75
2022/11/08 06:52:26;;;;;;;21.42;11.25;;;;;;;11.63;nan;-24141.88;5013311;28;20172;-74
2022/11/08 06:54:51;;;;;;;21.15;10.82;;;;;;;11.56;nan;-24139.91;5011228;28;20294;-72
2022/11/08 06:57:17;;;;;;;22.58;10.90;;;;;;;11.97;nan;-24151.16;5012961;28;20175;-76
2022/11/08 06:59:42;;;;;;;19.63;11.05;;;;;;;12.27;nan;-24159.75;5012831;28;20207;-75
2022/11/08 07:02:09;;;;;;;22.42;11.68;;;;;;;12.02;nan;-24152.72;5011789;28;20183;-74
2022/11/08 07:04:35;;;;;;;28.50;13.02;;;;;;;12.70;nan;-24171.56;5012188;28;20180;-74
2022/11/08 07:07:00;;;;;;;28.63;14.68;;;;;;;12.97;nan;-24179.03;5012778;28;20588;-74
2022/11/08 07:09:25;;;;;;;27.95;14.15;;;;;;;13.21;nan;-24185.91;5012245;28;20180;-74
2022/11/08 07:11:51;;;;;;;29.27;13.52;;;;;;;13.36;nan;-24190.00;5012230;28;20176;-74
2022/11/08 07:14:16;;;;;;;23.52;11.32;;;;;;;13.87;nan;-24204.03;5012532;28;20180;-73
2022/11/08 07:16:42;;;;;;;21.00;10.95;;;;;;;14.02;nan;-24208.38;5012494;28;20176;-74
2022/11/08 07:19:07;;;;;;;18.42;9.68;;;;;;;14.29;nan;-24215.69;5012250;28;20283;-74
2022/11/08 07:21:32;;;;;;;21.23;10.48;;;;;;;14.03;nan;-24208.66;5012079;28;20178;-75
2022/11/08 07:23:58;;;;;;;27.77;12.63;;;;;;;14.43;nan;-24219.75;5012778;28;20254;-74
2022/11/08 07:26:23;;;;;;;26.55;13.50;;;;;;;14.33;nan;-24216.94;5012347;28;20227;-75
2022/11/08 07:28:48;;;;;;;26.15;13.68;;;;;;;14.26;nan;-24214.84;5012354;28;20230;-75
2022/11/08 07:31:14;;;;;;;29.05;13.18;;;;;;;14.12;nan;-24211.19;5012835;28;20278;-75
2022/11/08 07:33:39;;;;;;;23.73;12.48;;;;;;;14.01;nan;-24208.09;5012446;28;20222;-73
2022/11/08 07:36:05;;;;;;;23.58;10.82;;;;;;;13.83;nan;-24202.91;5012000;28;20176;-75
2022/11/08 07:38:31;;;;;;;24.27;12.32;;;;;;;13.92;nan;-24205.44;5012206;28;20531;-74
2022/11/08 07:40:58;;;;;;;20.27;10.88;;;;;;;13.68;nan;-24198.84;5012629;28;20661;-74
2022/11/08 07:43:24;;;;;;;25.65;11.90;;;;;;;13.91;nan;-24205.16;5012535;28;20275;-75
2022/11/08 07:45:58;;;;;;;27.50;11.93;;;;;;;13.72;nan;-24199.97;5010037;28;20308;-74
2022/11/08 07:48:25;;;;;;;22.75;10.57;;;;;;;13.41;nan;-24191.25;5012021;28;20298;-75
2022/11/08 07:50:50;;;;;;;26.50;10.75;;;;;;;13.55;nan;-24195.19;5012362;28;20267;-74
2022/11/08 07:53:16;;;;;;;19.80;10.20;;;;;;;13.75;nan;-24200.81;5011226;28;20557;-74
2022/11/08 07:55:41;;;;;;;21.20;10.77;;;;;;;13.59;nan;-24196.44;5022681;28;20187;-74
2022/11/08 07:58:09;;;;;;;22.65;9.80;;;;;;;13.62;nan;-24197.16;5016691;28;20614;-73
2022/11/08 08:00:36;;;;;;;21.17;9.57;;;;;;;13.56;nan;-24195.47;5031418;28;20682;-74
2022/11/08 08:03:03;;;;;;;23.45;10.55;;;;;;;13.88;nan;-24204.44;5020872;28;20188;-74
2022/11/08 08:05:33;;;;;;;22.45;11.10;;;;;;;13.76;nan;-24201.09;5012049;28;20646;-72
2022/11/08 08:07:59;;;;;;;24.33;11.30;;;;;;;13.89;nan;-24204.59;5011404;28;20207;-75
2022/11/08 08:10:26;;;;;;;21.33;11.07;;;;;;;13.71;nan;-24199.81;5012207;28;20176;-74
2022/11/08 08:12:52;;;;;;;25.33;10.70;;;;;;;13.52;nan;-24194.34;5011985;28;20658;-73
2022/11/08 08:15:17;;;;;;;23.40;10.30;;;;;;;13.76;nan;-24200.94;5011986;28;20160;-74
2022/11/08 08:17:42;;;;;;;22.15;10.00;;;;;;;14.03;nan;-24208.66;5011995;28;20176;-74
2022/11/08 08:20:09;;;;;;;24.85;10.95;;;;;;;13.76;nan;-24200.94;5011860;28;20635;-74
2022/11/08 08:22:34;;;;;;;24.67;11.48;;;;;;;13.78;nan;-24201.50;5010326;28;20180;-75
2022/11/08 08:24:59;;;;;;;25.10;10.07;;;;;;;14.17;nan;-24212.44;5012064;28;20175;-74
2022/11/08 08:27:25;;;;;;;25.17;10.68;;;;;;;14.19;nan;-24213.00;5012166;28;20757;-75
2022/11/08 08:29:50;;;;;;;21.13;10.15;;;;;;;13.85;nan;-24203.59;5011972;28;20172;-73
2022/11/08 08:32:15;;;;;;;26.23;11.07;;;;;;;14.32;nan;-24216.50;5012078;28;20196;-73
2022/11/08 08:34:41;;;;;;;22.35;10.05;;;;;;;14.19;nan;-24212.88;5011665;28;20172;-73
2022/11/08 08:37:06;;;;;;;22.48;10.82;;;;;;;14.65;nan;-24225.78;5011335;28;20620;-74
2022/11/08 08:39:32;;;;;;;19.92;10.35;;;;;;;14.82;nan;-24230.53;5011526;28;20219;-73
2022/11/08 08:41:57;;;;;;;24.13;11.82;;;;;;;10.98;nan;-24123.69;5011317;28;20207;-74
2022/11/08 08:44:22;;;;;;;28.63;10.55;;;;;;;14.61;nan;-24224.50;5011031;28;20179;-73
2022/11/08 08:46:48;;;;;;;25.92;11.18;;;;;;;14.86;nan;-24231.66;5011461;28;20602;-74
2022/11/08 08:49:13;;;;;;;22.02;11.30;;;;;;;14.73;nan;-24227.88;5011798;28;20177;-74
2022/11/08 08:51:38;;;;;;;24.70;10.38;;;;;;;14.93;nan;-24233.50;5011474;28;20185;-74
2022/11/08 08:54:04;;;;;;;20.00;10.35;;;;;;;15.28;nan;-24243.28;5010977;28;20251;-75
2022/11/08 08:56:30;;;;;;;19.02;10.40;;;;;;;15.43;nan;-24247.34;5009854;28;20180;-74
2022/11/08 08:58:55;;;;;;;22.63;10.45;;;;;;;15.43;nan;-24247.50;5015040;28;20180;-74
2022/11/08 09:01:21;;;;;;;25.95;10.63;;;;;;;15.74;nan;-24255.91;5013495;28;20207;-75
2022/11/08 09:03:46;;;;;;;18.27;8.57;;;;;;;15.69;nan;-24254.63;5014776;28;20176;-75
2022/11/08 09:06:12;;;;;;;22.73;9.48;;;;;;;16.08;nan;-24265.41;5014672;28;20176;-75
2022/11/08 09:08:37;;;;;;;19.65;9.15;;;;;;;15.50;nan;-24249.31;5014796;28;20196;-73
2022/11/08 09:11:03;;;;;;;19.85;9.18;;;;;;;15.48;nan;-24248.75;5015282;28;20176;-74
2022/11/08 09:13:31;;;;;;;14.75;8.30;;;;;;;15.93;nan;-24261.06;5015060;28;20182;-73
2022/11/08 09:16:00;;;;;;;15.50;7.57;;;;;;;15.83;nan;-24258.56;5015258;28;20184;-74
2022/11/08 09:18:25;;;;;;;16.85;8.77;;;;;;;15.87;nan;-24259.66;5015375;28;20172;-73
2022/11/08 09:20:54;;;;;;;18.25;8.43;;;;;;;16.18;nan;-24268.22;5014250;28;20199;-75
2022/11/08 09:23:19;;;;;;;16.17;7.93;;;;;;;16.80;nan;-24285.25;5015254;28;20175;-74
2022/11/08 09:25:45;;;;;;;22.05;9.45;;;;;;;16.45;nan;-24275.63;5025532;28;20228;-72
2022/11/08 09:28:10;;;;;;;18.23;9.05;;;;;;;16.77;nan;-24284.41;5022051;28;20198;-74
2022/11/08 09:30:36;;;;;;;20.63;8.60;;;;;;;17.19;nan;-24296.00;5034594;28;20176;-74
2022/11/08 09:33:01;;;;;;;16.48;8.00;;;;;;;17.19;nan;-24296.16;5029891;28;20195;-73
2022/11/08 09:35:27;;;;;;;17.88;9.05;;;;;;;15.32;nan;-24244.41;5013637;28;20547;-73
2022/11/08 09:37:53;;;;;;;13.98;7.97;;;;;;;17.16;nan;-24295.31;5014170;28;20176;-73
2022/11/08 09:40:41;;;;;;;12.00;6.78;;;;;;;16.31;nan;-24271.84;5014150;28;20702;-75
2022/11/08 09:43:21;;;;;;;17.45;7.00;;;;;;;16.92;nan;-24288.63;5014232;28;20604;-75
2022/11/08 09:45:49;;;;;;;17.42;7.93;;;;;;;17.09;nan;-24293.22;5014015;28;20204;-73
2022/11/08 09:48:30;;;;;;;19.70;8.40;;;;;;;17.14;nan;-24294.63;5013964;28;20586;-73
2022/11/08 09:50:57;;;;;;;16.20;7.90;;;;;;;17.20;nan;-24296.44;5014141;28;20168;-74
2022/11/08 09:53:51;;;;;;;19.45;8.27;;;;;;;17.98;nan;-24317.78;5013683;28;20553;-74
2022/11/08 09:56:35;;;;;;;14.50;7.32;;;;;;;17.61;nan;-24307.75;5014163;28;20176;-75
2022/11/08 09:59:43;;;;;;;16.80;7.80;;;;;;;17.87;nan;-24314.84;5013818;28;20719;-76
2022/11/08 10:02:16;;;;;;;13.30;6.65;;;;;;;18.29;nan;-24326.28;5013326;28;20204;-75
2022/11/08 10:04:47;;;;;;;13.18;6.72;;;;;;;18.24;nan;-24325.03;5013929;28;20270;-75
2022/11/08 10:07:41;;;;;;;16.83;7.50;;;;;;;18.39;nan;-24329.22;5012436;28;20168;-73
2022/11/08 10:10:34;;;;;;;13.73;7.18;;;;;;;18.60;nan;-24334.91;5011353;28;20192;-74
2022/11/08 10:13:02;;;;;;;20.05;8.10;;;;;;;18.31;nan;-24326.84;5012187;28;20176;-73
2022/11/08 10:15:37;;;;;;;16.92;7.75;;;;;;;18.39;nan;-24329.22;5014037;28;20695;-75
2022/11/08 10:18:38;;;;;;;18.67;8.50;;;;;;;18.20;nan;-24323.78;5013584;28;20171;-73
2022/11/08 10:21:39;;;;;;;15.77;7.93;;;;;;;18.48;nan;-24331.56;5013470;28;20200;-74
2022/11/08 10:24:36;;;;;;;13.82;7.05;;;;;;;18.74;nan;-24338.69;5013803;28;20705;-75
2022/11/08 10:27:09;;;;;;;16.90;7.28;;;;;;;17.84;nan;-24314.00;5013538;28;20551;-73
2022/11/08 10:29:40;;;;;;;17.35;8.50;;;;;;;17.96;nan;-24317.34;5013457;28;20168;-73
2022/11/08 10:32:18;;;;;;;23.73;8.35;;;;;;;17.79;nan;-24312.47;5013034;28;20255;-74
2022/11/08 10:35:10;;;;;;;13.20;7.45;;;;;;;17.44;nan;-24303.00;5013236;28;20259;-73
2022/11/08 10:37:36;;;;;;;20.10;7.90;;;;;;;17.28;nan;-24298.38;5011613;28;20239;-73
2022/11/08 10:40:33;;;;;;;14.75;7.38;;;;;;;17.44;nan;-24303.00;5012479;28;20204;-75
2022/11/08 10:43:04;;;;;;;18.25;7.78;;;;;;;17.92;nan;-24316.09;5008769;28;20207;-75
2022/11/08 10:45:30;;;;;;;14.65;7.55;;;;;;;18.30;nan;-24326.69;5013045;28;20168;-74
2022/11/08 10:47:56;;;;;;;18.17;7.70;;;;;;;18.31;nan;-24326.84;5012791;28;20183;-75
2022/11/08 10:50:36;;;;;;;16.60;7.30;;;;;;;18.50;nan;-24332.13;5012257;28;20557;-76
2022/11/08 10:53:02;;;;;;;16.67;7.68;;;;;;;18.91;nan;-24343.41;5012612;28;20168;-75
2022/11/08 10:55:37;;;;;;;15.48;7.53;;;;;;;18.66;nan;-24336.44;5022750;28;20229;-74
2022/11/08 10:58:21;;;;;;;17.75;8.90;;;;;;;18.24;nan;-24324.88;5017824;28;20236;-74
2022/11/08 11:01:00;;;;;;;14.20;7.57;;;;;;;18.31;nan;-24326.84;5031912;28;20211;-74
2022/11/08 11:03:28;;;;;;;15.38;7.68;;;;;;;18.24;nan;-24325.03;5017560;28;20707;-74
2022/11/08 11:05:58;;;;;;;15.90;7.70;;;;;;;18.14;nan;-24322.25;5012534;28;20176;-75
2022/11/08 11:08:24;;;;;;;14.93;7.47;;;;;;;18.40;nan;-24329.34;5012880;28;20192;-74
2022/11/08 11:10:50;;;;;;;20.98;8.05;;;;;;;18.54;nan;-24333.38;5012797;28;20184;-75
2022/11/08 11:13:26;;;;;;;12.48;6.63;;;;;;;18.49;nan;-24331.84;5012136;28;20204;-73
2022/11/08 11:16:04;;;;;;;15.23;8.38;;;;;;;18.28;nan;-24326.13;5010877;28;20692;-73
2022/11/08 11:18:35;;;;;;;14.02;7.35;;;;;;;18.37;nan;-24328.66;5011680;28;20624;-77
2022/11/08 11:21:10;;;;;;;16.10;8.10;;;;;;;18.43;nan;-24330.31;5012707;28;20230;-74
2022/11/08 11:23:57;;;;;;;15.88;8.23;;;;;;;18.48;nan;-24331.56;5012141;28;20242;-73
2022/11/08 11:26:28;;;;;;;17.10;8.00;;;;;;;18.57;nan;-24333.94;5012354;28;20255;-74
2022/11/08 11:29:25;;;;;;;15.70;7.47;;;;;;;18.47;nan;-24331.28;5011834;28;20279;-73
2022/11/08 11:31:52;;;;;;;23.38;7.82;;;;;;;18.56;nan;-24333.66;5010509;28;20188;-73
2022/11/08 11:34:17;;;;;;;18.58;7.97;;;;;;;18.56;nan;-24333.81;5011942;28;20176;-73
2022/11/08 11:37:02;;;;;;;18.67;8.13;;;;;;;18.02;nan;-24319.03;5012357;28;20176;-73
2022/11/08 11:39:38;;;;;;;19.77;7.15;;;;;;;17.89;nan;-24315.28;5012988;28;20219;-74
2022/11/08 11:42:15;;;;;;;13.95;7.50;;;;;;;17.33;nan;-24299.91;5012493;28;20207;-73
2022/11/08 11:45:09;;;;;;;21.15;7.40;;;;;;;18.28;nan;-24326.13;5011749;28;20623;-74
2022/11/08 11:47:49;;;;;;;17.95;7.93;;;;;;;18.06;nan;-24320.00;5003580;28;20192;-74
2022/11/08 11:50:18;;;;;;;21.00;7.75;;;;;;;18.49;nan;-24332.00;5012390;28;20195;-74
2022/11/08 11:52:43;;;;;;;18.30;8.30;;;;;;;17.29;nan;-24298.66;5012230;28;20172;-74
2022/11/08 11:55:14;;;;;;;16.02;8.40;;;;;;;18.26;nan;-24325.59;5012121;28;20263;-74